createdAt,value
2017-12-26T00:01:22.730Z,23.00
2017-12-26T00:03:52.395Z,14.27
2017-12-26T00:06:22.026Z,20.83
2017-12-26T00:08:51.986Z,19.90
2017-12-26T00:11:21.699Z,17.20
2017-12-26T00:13:51.235Z,15.87
2017-12-26T00:16:21.044Z,22.13
2017-12-26T00:18:50.869Z,21.00
2017-12-26T00:21:20.491Z,19.10
2017-12-26T00:23:50.274Z,20.17
2017-12-26T00:26:19.776Z,19.73
2017-12-26T00:28:49.236Z,21.30
2017-12-26T00:31:18.840Z,21.40
2017-12-26T00:33:48.502Z,21.20
2017-12-26T00:36:17.998Z,24.37
2017-12-26T00:38:47.782Z,28.93
2017-12-26T00:41:17.433Z,23.83
2017-12-26T00:43:47.305Z,23.50
2017-12-26T00:46:16.997Z,19.07
2017-12-26T00:48:46.455Z,25.37
2017-12-26T00:51:16.400Z,23.17
2017-12-26T00:53:45.850Z,24.33
2017-12-26T00:56:15.454Z,24.93
2017-12-26T00:58:45.127Z,27.17
2017-12-26T01:01:14.668Z,28.00
2017-12-26T01:03:44.338Z,25.43
2017-12-26T01:06:13.850Z,23.93
2017-12-26T01:08:43.312Z,27.23
2017-12-26T01:11:13.699Z,24.10
2017-12-26T01:13:43.521Z,27.20
2017-12-26T01:16:13.016Z,31.10
2017-12-26T01:18:42.787Z,25.80
2017-12-26T01:21:12.435Z,27.70
2017-12-26T01:23:42.128Z,30.30
2017-12-26T01:26:11.634Z,29.30
2017-12-26T01:28:41.422Z,24.67
2017-12-26T01:31:10.941Z,29.83
2017-12-26T01:33:40.407Z,26.80
2017-12-26T01:36:10.647Z,31.87
2017-12-26T01:38:40.302Z,26.07
2017-12-26T01:41:09.868Z,26.83
2017-12-26T01:43:39.611Z,27.77
2017-12-26T01:46:18.020Z,30.57
2017-12-26T01:48:47.455Z,34.10
2017-12-26T01:51:16.962Z,28.77
2017-12-26T01:53:46.866Z,29.30
2017-12-26T01:56:16.311Z,33.63
2017-12-26T01:58:45.778Z,28.33
2017-12-26T02:01:15.251Z,27.33
2017-12-26T02:04:15.926Z,31.23
2017-12-26T02:06:45.367Z,27.70
2017-12-26T02:09:14.857Z,33.87
2017-12-26T02:11:45.059Z,25.60
2017-12-26T02:14:14.511Z,30.83
2017-12-26T02:16:43.955Z,27.30
2017-12-26T02:19:13.457Z,29.40
2017-12-26T02:21:42.914Z,27.00
2017-12-26T02:24:12.374Z,23.90
2017-12-26T02:26:42.035Z,26.77
2017-12-26T02:29:11.529Z,33.43
2017-12-26T02:31:40.986Z,26.80
2017-12-26T02:34:10.432Z,27.53
2017-12-26T02:36:39.888Z,28.00
2017-12-26T02:39:09.327Z,31.10
2017-12-26T02:41:38.819Z,25.40
2017-12-26T02:44:09.641Z,29.50
2017-12-26T02:46:39.091Z,25.43
2017-12-26T02:49:08.560Z,27.93
2017-12-26T02:51:38.766Z,27.50
2017-12-26T02:54:08.238Z,25.50
2017-12-26T02:56:37.968Z,25.07
2017-12-26T02:59:07.423Z,24.80
2017-12-26T03:01:36.892Z,25.17
2017-12-26T03:04:06.351Z,26.23
2017-12-26T03:06:35.931Z,28.67
2017-12-26T03:09:05.762Z,25.07
2017-12-26T03:11:35.201Z,24.00
2017-12-26T03:14:04.668Z,26.27
2017-12-26T03:16:34.316Z,24.07
2017-12-26T03:19:03.796Z,26.83
2017-12-26T03:21:33.383Z,20.80
2017-12-26T03:24:02.839Z,26.63
2017-12-26T03:26:32.628Z,25.60
2017-12-26T03:29:02.108Z,19.60
2017-12-26T03:31:31.764Z,22.60
2017-12-26T03:34:01.216Z,19.93
2017-12-26T03:36:30.678Z,19.60
2017-12-26T03:39:00.351Z,16.47
2017-12-26T03:41:29.788Z,17.50
2017-12-26T03:43:59.252Z,19.00
2017-12-26T03:46:28.714Z,16.63
2017-12-26T03:48:58.274Z,19.43
2017-12-26T03:51:27.786Z,17.03
2017-12-26T03:53:57.499Z,14.17
2017-12-26T03:56:26.928Z,16.83
2017-12-26T03:58:56.386Z,17.47
2017-12-26T04:01:25.822Z,15.10
2017-12-26T04:03:55.440Z,14.50
2017-12-26T04:06:37.021Z,14.67
2017-12-26T04:09:07.119Z,14.03
2017-12-26T04:11:36.600Z,15.00
2017-12-26T04:14:06.220Z,13.33
2017-12-26T04:16:35.668Z,12.50
2017-12-26T04:19:05.246Z,13.60
2017-12-26T04:21:34.846Z,12.30
2017-12-26T04:24:04.351Z,13.57
2017-12-26T04:26:33.782Z,13.30
2017-12-26T04:29:03.284Z,14.93
2017-12-26T04:31:32.849Z,11.60
2017-12-26T04:34:02.364Z,12.30
2017-12-26T04:36:31.999Z,11.70
2017-12-26T04:39:01.494Z,15.17
2017-12-26T04:41:31.090Z,13.13
2017-12-26T04:44:00.535Z,13.20
2017-12-26T04:46:31.699Z,14.40
2017-12-26T04:49:01.270Z,16.37
2017-12-26T04:51:30.726Z,16.63
2017-12-26T04:54:00.165Z,13.83
2017-12-26T04:56:29.848Z,16.40
2017-12-26T04:58:59.415Z,19.33
2017-12-26T05:01:29.624Z,17.10
2017-12-26T05:03:59.068Z,17.00
2017-12-26T05:06:28.503Z,14.67
2017-12-26T05:08:58.053Z,17.40
2017-12-26T05:11:27.498Z,17.33
2017-12-26T05:13:57.291Z,18.80
2017-12-26T05:16:27.221Z,17.30
2017-12-26T05:18:56.721Z,14.80
2017-12-26T05:21:26.208Z,18.23
2017-12-26T05:23:55.698Z,20.23
2017-12-26T05:26:25.178Z,20.50
2017-12-26T05:28:54.737Z,18.40
2017-12-26T05:31:24.404Z,16.53
2017-12-26T05:33:54.095Z,17.70
2017-12-26T05:36:23.540Z,16.63
2017-12-26T05:38:52.993Z,17.70
2017-12-26T05:41:22.463Z,17.47
2017-12-26T05:43:52.362Z,16.43
2017-12-26T05:46:21.851Z,23.47
2017-12-26T05:48:51.315Z,20.10
2017-12-26T05:51:21.553Z,22.60
2017-12-26T05:53:51.026Z,19.10
2017-12-26T05:56:20.488Z,18.97
2017-12-26T05:58:50.042Z,17.00
2017-12-26T06:01:19.482Z,16.53
2017-12-26T06:03:50.028Z,22.00
2017-12-26T06:06:19.475Z,20.70
2017-12-26T06:08:49.614Z,16.23
2017-12-26T06:11:19.185Z,19.20
2017-12-26T06:13:48.630Z,18.20
2017-12-26T06:16:18.220Z,14.97
2017-12-26T06:18:47.701Z,17.40
2017-12-26T06:21:17.238Z,18.40
2017-12-26T06:23:46.716Z,13.60
2017-12-26T06:26:16.876Z,18.70
2017-12-26T06:28:46.450Z,16.50
2017-12-26T06:31:15.948Z,16.20
2017-12-26T06:33:45.449Z,20.70
2017-12-26T06:36:14.902Z,15.57
2017-12-26T06:38:44.560Z,15.87
2017-12-26T06:41:14.007Z,15.80
2017-12-26T06:43:44.219Z,22.23
2017-12-26T06:46:13.676Z,18.23
2017-12-26T06:48:43.439Z,15.87
2017-12-26T06:51:12.943Z,15.77
2017-12-26T06:53:42.455Z,17.53
2017-12-26T06:56:12.244Z,15.43
2017-12-26T06:58:41.839Z,11.50
2017-12-26T07:01:11.384Z,19.13
2017-12-26T07:03:41.830Z,13.87
2017-12-26T07:06:11.541Z,15.60
2017-12-26T07:08:41.017Z,13.93
2017-12-26T07:11:11.243Z,20.83
2017-12-26T07:13:41.267Z,14.80
2017-12-26T07:16:10.733Z,16.90
2017-12-26T07:18:40.614Z,13.13
2017-12-26T07:21:14.290Z,15.47
2017-12-26T07:23:44.652Z,17.70
2017-12-26T07:26:14.179Z,13.93
2017-12-26T07:28:43.656Z,15.27
2017-12-26T07:31:13.128Z,21.70
2017-12-26T07:33:43.375Z,14.87
2017-12-26T07:36:12.937Z,11.60
2017-12-26T07:38:42.633Z,18.23
2017-12-26T07:41:12.183Z,14.97
2017-12-26T07:43:41.871Z,20.40
2017-12-26T07:46:12.260Z,14.70
2017-12-26T07:48:41.726Z,16.53
2017-12-26T07:51:11.334Z,15.97
2017-12-26T07:53:40.847Z,17.87
2017-12-26T07:56:10.575Z,16.40
2017-12-26T07:58:40.011Z,18.33
2017-12-26T08:01:10.175Z,18.00
2017-12-26T08:03:39.690Z,18.47
2017-12-26T08:06:09.203Z,18.80
2017-12-26T08:08:39.379Z,16.83
2017-12-26T08:11:09.259Z,18.10
2017-12-26T08:13:38.921Z,22.03
2017-12-26T08:16:08.633Z,16.67
2017-12-26T08:18:38.120Z,31.47
2017-12-26T08:21:08.507Z,19.80
2017-12-26T08:23:38.298Z,91.60
2017-12-26T08:26:07.800Z,20.97
2017-12-26T08:28:37.365Z,16.73
2017-12-26T08:31:07.612Z,19.40
2017-12-26T08:33:37.452Z,71.83
2017-12-26T08:36:06.955Z,130.53
2017-12-26T08:38:36.469Z,72.97
2017-12-26T08:41:06.119Z,43.57
2017-12-26T08:43:36.352Z,33.53
2017-12-26T08:46:06.239Z,30.07
2017-12-26T08:48:35.735Z,21.90
2017-12-26T08:51:06.034Z,21.90
2017-12-26T08:53:35.542Z,21.40
2017-12-26T08:56:05.213Z,18.80
2017-12-26T08:58:34.692Z,19.03
2017-12-26T09:01:04.995Z,17.97
2017-12-26T09:03:35.483Z,19.90
2017-12-26T09:06:04.979Z,18.00
2017-12-26T09:08:34.858Z,17.40
2017-12-26T09:11:04.637Z,19.00
2017-12-26T09:13:34.543Z,15.93
2017-12-26T09:16:04.052Z,24.83
2017-12-26T09:18:33.661Z,17.57
2017-12-26T09:21:03.415Z,18.40
2017-12-26T09:23:32.895Z,19.93
2017-12-26T09:26:02.501Z,18.07
2017-12-26T09:28:32.093Z,18.57
2017-12-26T09:31:01.711Z,22.10
2017-12-26T09:33:31.229Z,18.33
2017-12-26T09:36:00.719Z,18.23
2017-12-26T09:38:30.321Z,19.03
2017-12-26T09:41:00.119Z,16.73
2017-12-26T09:43:29.597Z,21.67
2017-12-26T09:45:59.284Z,13.13
2017-12-26T09:48:28.930Z,13.20
2017-12-26T09:50:59.104Z,10.53
2017-12-26T09:53:28.964Z,10.63
2017-12-26T09:55:58.427Z,9.43
2017-12-26T09:58:28.670Z,11.37
2017-12-26T10:00:58.277Z,7.83
2017-12-26T10:03:27.828Z,10.50
2017-12-26T10:05:57.868Z,11.80
2017-12-26T10:08:28.196Z,8.03
2017-12-26T10:10:58.730Z,5.43
2017-12-26T10:13:29.511Z,7.60
2017-12-26T10:15:59.773Z,15.03
2017-12-26T10:18:29.667Z,17.27
2017-12-26T10:20:59.148Z,7.20
2017-12-26T10:23:28.718Z,10.93
2017-12-26T10:25:58.424Z,9.33
2017-12-26T10:28:32.539Z,15.00
2017-12-26T10:31:02.492Z,7.63
2017-12-26T10:33:31.953Z,4.97
2017-12-26T10:36:01.607Z,5.80
2017-12-26T10:38:31.533Z,6.53
2017-12-26T10:41:01.493Z,4.97
2017-12-26T10:43:32.638Z,8.70
2017-12-26T10:46:02.221Z,10.67
2017-12-26T10:48:32.627Z,6.80
2017-12-26T10:51:02.482Z,6.03
2017-12-26T10:53:33.082Z,9.73
2017-12-26T10:56:02.982Z,4.03
2017-12-26T10:58:32.934Z,15.10
2017-12-26T11:01:02.477Z,11.50
2017-12-26T11:03:32.212Z,7.97
2017-12-26T11:06:01.909Z,6.33
2017-12-26T11:08:31.478Z,7.60
2017-12-26T11:11:02.079Z,10.37
2017-12-26T11:13:32.115Z,11.43
2017-12-26T11:16:03.621Z,5.40
2017-12-26T11:18:33.176Z,7.03
2017-12-26T11:21:03.448Z,9.63
2017-12-26T11:23:33.214Z,16.13
2017-12-26T11:26:03.733Z,11.53
2017-12-26T11:28:33.741Z,15.20
2017-12-26T11:31:04.325Z,11.37
2017-12-26T11:33:34.089Z,11.13
2017-12-26T11:36:03.653Z,7.13
2017-12-26T11:38:33.260Z,5.97
2017-12-26T11:41:02.734Z,11.17
2017-12-26T11:43:32.773Z,26.57
2017-12-26T11:46:02.350Z,9.73
2017-12-26T11:48:31.832Z,13.43
2017-12-26T11:51:01.480Z,8.90
2017-12-26T11:53:31.096Z,13.10
2017-12-26T11:56:00.588Z,13.43
2017-12-26T11:58:30.451Z,11.37
2017-12-26T12:00:59.984Z,22.33
2017-12-26T12:03:29.675Z,10.87
2017-12-26T12:05:59.299Z,9.90
2017-12-26T12:08:29.678Z,7.27
2017-12-26T12:10:59.398Z,11.80
2017-12-26T12:13:29.058Z,8.67
2017-12-26T12:15:58.648Z,5.20
2017-12-26T12:18:28.153Z,8.00
2017-12-26T12:20:57.835Z,9.93
2017-12-26T12:23:27.518Z,9.03
2017-12-26T12:25:57.649Z,13.50
2017-12-26T12:28:27.339Z,9.87
2017-12-26T12:30:57.463Z,5.43
2017-12-26T12:33:27.119Z,9.93
2017-12-26T12:35:56.602Z,13.37
2017-12-26T12:38:26.235Z,5.70
2017-12-26T12:40:55.837Z,11.33
2017-12-26T12:43:26.113Z,12.33
2017-12-26T12:45:56.167Z,9.57
2017-12-26T12:48:26.445Z,6.00
2017-12-26T12:50:56.160Z,8.37
2017-12-26T12:53:25.989Z,20.03
2017-12-26T12:55:55.578Z,12.63
2017-12-26T12:58:25.371Z,13.10
2017-12-26T13:00:55.025Z,11.10
2017-12-26T13:03:26.089Z,10.47
2017-12-26T13:05:55.865Z,8.73
2017-12-26T13:08:25.533Z,22.27
2017-12-26T13:10:55.148Z,10.93
2017-12-26T13:13:25.318Z,8.27
2017-12-26T13:15:55.224Z,14.27
2017-12-26T13:18:25.139Z,14.23
2017-12-26T13:20:55.533Z,15.20
2017-12-26T13:23:25.141Z,9.40
2017-12-26T13:25:54.832Z,7.70
2017-12-26T13:28:24.547Z,13.10
2017-12-26T13:30:54.172Z,14.87
2017-12-26T13:33:23.882Z,8.10
2017-12-26T13:35:53.740Z,11.90
2017-12-26T13:38:23.359Z,8.13
2017-12-26T13:40:53.031Z,17.03
2017-12-26T13:43:22.835Z,16.77
2017-12-26T13:45:52.324Z,11.10
2017-12-26T13:48:22.138Z,13.03
2017-12-26T13:50:51.924Z,12.37
2017-12-26T13:53:21.675Z,32.67
2017-12-26T13:55:51.353Z,23.87
2017-12-26T13:58:20.960Z,13.23
2017-12-26T14:00:50.945Z,15.80
2017-12-26T14:03:21.006Z,15.53
2017-12-26T14:05:50.944Z,14.07
2017-12-26T14:08:20.658Z,21.37
2017-12-26T14:10:50.302Z,15.30
2017-12-26T14:13:19.819Z,12.10
2017-12-26T14:15:49.561Z,20.40
2017-12-26T14:18:19.418Z,13.00
2017-12-26T14:20:49.100Z,18.87
2017-12-26T14:23:18.760Z,18.30
2017-12-26T14:25:48.294Z,11.07
2017-12-26T14:28:18.135Z,15.80
2017-12-26T14:30:47.896Z,13.60
2017-12-26T14:33:17.868Z,10.70
2017-12-26T14:35:47.887Z,15.03
2017-12-26T14:38:17.652Z,25.23
2017-12-26T14:40:47.430Z,39.63
2017-12-26T14:43:17.484Z,52.40
2017-12-26T14:45:47.200Z,54.53
2017-12-26T14:48:16.824Z,18.10
2017-12-26T14:50:46.626Z,25.50
2017-12-26T14:53:16.151Z,22.80
2017-12-26T14:55:46.152Z,21.47
2017-12-26T14:58:16.158Z,14.40
2017-12-26T15:00:45.952Z,15.50
2017-12-26T15:03:16.050Z,18.43
2017-12-26T15:05:46.853Z,10.33
2017-12-26T15:08:17.085Z,20.57
2017-12-26T15:10:46.786Z,17.07
2017-12-26T15:13:16.583Z,14.13
2017-12-26T15:15:46.398Z,10.00
2017-12-26T15:18:16.158Z,15.53
2017-12-26T15:20:46.556Z,9.23
2017-12-26T15:23:16.249Z,28.03
2017-12-26T15:25:46.764Z,12.90
2017-12-26T15:28:16.579Z,17.90
2017-12-26T15:30:47.079Z,16.23
2017-12-26T15:33:17.312Z,11.00
2017-12-26T15:35:46.847Z,8.47
2017-12-26T15:38:16.931Z,17.50
2017-12-26T15:40:46.604Z,21.00
2017-12-26T15:43:17.271Z,16.90
2017-12-26T15:45:46.802Z,16.13
2017-12-26T15:48:16.395Z,12.37
2017-12-26T15:50:46.308Z,15.17
2017-12-26T15:53:16.035Z,13.23
2017-12-26T15:55:45.755Z,9.93
2017-12-26T15:58:15.304Z,12.33
2017-12-26T16:00:44.933Z,26.80
2017-12-26T16:03:14.969Z,16.07
2017-12-26T16:05:44.623Z,16.20
2017-12-26T16:08:14.611Z,12.03
2017-12-26T16:10:44.165Z,23.77
2017-12-26T16:13:13.743Z,14.80
2017-12-26T16:15:43.611Z,15.10
2017-12-26T16:18:13.368Z,18.00
2017-12-26T16:20:43.984Z,15.60
2017-12-26T16:23:13.568Z,11.03
2017-12-26T16:25:43.405Z,20.73
2017-12-26T16:28:12.948Z,14.80
2017-12-26T16:30:42.594Z,13.70
2017-12-26T16:33:12.388Z,9.73
2017-12-26T16:35:42.031Z,9.30
2017-12-26T16:38:11.791Z,8.93
2017-12-26T16:40:41.441Z,26.77
2017-12-26T16:43:10.978Z,24.47
2017-12-26T16:45:41.612Z,12.23
2017-12-26T16:48:11.251Z,19.93
2017-12-26T16:50:40.819Z,22.97
2017-12-26T16:53:11.198Z,19.13
2017-12-26T16:55:40.932Z,24.83
2017-12-26T16:58:10.439Z,22.00
2017-12-26T17:00:40.248Z,11.90
2017-12-26T17:03:09.967Z,26.27
2017-12-26T17:05:39.651Z,14.60
2017-12-26T17:08:10.004Z,18.07
2017-12-26T17:10:39.656Z,9.73
2017-12-26T17:13:10.009Z,17.33
2017-12-26T17:15:39.796Z,11.40
2017-12-26T17:18:09.377Z,20.57
2017-12-26T17:20:39.951Z,16.70
2017-12-26T17:23:10.297Z,27.37
2017-12-26T17:25:39.974Z,10.00
2017-12-26T17:28:09.686Z,10.07
2017-12-26T17:30:39.513Z,7.03
2017-12-26T17:33:08.967Z,8.13
2017-12-26T17:35:38.679Z,11.37
2017-12-26T17:38:08.383Z,11.10
2017-12-26T17:40:38.221Z,10.60
2017-12-26T17:43:07.963Z,22.47
2017-12-26T17:45:37.649Z,14.90
2017-12-26T17:48:07.575Z,12.20
2017-12-26T17:50:37.263Z,20.27
2017-12-26T17:53:06.819Z,10.40
2017-12-26T17:55:36.728Z,10.60
2017-12-26T17:58:06.399Z,11.97
2017-12-26T18:00:36.152Z,8.50
2017-12-26T18:03:05.613Z,13.77
2017-12-26T18:05:35.450Z,19.43
2017-12-26T18:08:05.011Z,9.87
2017-12-26T18:10:35.771Z,11.40
2017-12-26T18:13:05.320Z,14.87
2017-12-26T18:15:35.202Z,14.00
2017-12-26T18:18:05.953Z,9.43
2017-12-26T18:20:35.922Z,6.70
2017-12-26T18:23:06.595Z,8.73
2017-12-26T18:25:36.443Z,12.33
2017-12-26T18:28:08.549Z,9.43
2017-12-26T18:30:38.168Z,8.10
2017-12-26T18:33:07.890Z,13.23
2017-12-26T18:35:37.626Z,11.40
2017-12-26T18:38:07.295Z,11.30
2017-12-26T18:40:37.121Z,9.80
2017-12-26T18:43:07.340Z,9.90
2017-12-26T18:45:36.870Z,8.93
2017-12-26T18:48:06.973Z,17.83
2017-12-26T18:50:36.791Z,5.40
2017-12-26T18:53:06.379Z,6.63
2017-12-26T18:55:36.096Z,8.63
2017-12-26T18:58:05.953Z,8.67
2017-12-26T19:00:36.411Z,11.83
2017-12-26T19:03:06.310Z,11.30
2017-12-26T19:05:36.144Z,3.90
2017-12-26T19:08:06.030Z,7.17
2017-12-26T19:10:36.300Z,12.03
2017-12-26T19:13:05.861Z,13.73
2017-12-26T19:15:35.441Z,7.80
2017-12-26T19:18:04.911Z,3.43
2017-12-26T19:20:34.483Z,9.80
2017-12-26T19:23:04.398Z,11.07
2017-12-26T19:25:34.117Z,11.17
2017-12-26T19:28:03.919Z,6.40
2017-12-26T19:30:33.586Z,11.00
2017-12-26T19:33:03.207Z,15.47
2017-12-26T19:35:33.204Z,13.93
2017-12-26T19:38:02.939Z,12.73
2017-12-26T19:40:33.537Z,13.67
2017-12-26T19:43:03.291Z,11.00
2017-12-26T19:45:33.210Z,14.87
2017-12-26T19:48:03.789Z,10.83
2017-12-26T19:50:33.555Z,8.70
2017-12-26T19:53:03.180Z,10.03
2017-12-26T19:55:32.775Z,14.60
2017-12-26T19:58:02.308Z,8.63
2017-12-26T20:00:31.988Z,15.90
2017-12-26T20:03:01.681Z,16.20
2017-12-26T20:05:32.243Z,13.40
2017-12-26T20:08:01.963Z,8.80
2017-12-26T20:10:31.481Z,19.00
2017-12-26T20:13:00.994Z,11.57
2017-12-26T20:15:30.731Z,9.73
2017-12-26T20:18:01.297Z,11.10
2017-12-26T20:20:30.846Z,24.43
2017-12-26T20:23:00.549Z,9.83
2017-12-26T20:25:30.027Z,8.67
2017-12-26T20:28:03.996Z,13.20
2017-12-26T20:30:34.174Z,17.60
2017-12-26T20:33:03.779Z,16.63
2017-12-26T20:35:33.469Z,15.60
2017-12-26T20:38:03.270Z,8.70
2017-12-26T20:40:33.207Z,9.93
2017-12-26T20:43:03.233Z,13.83
2017-12-26T20:45:32.970Z,10.03
2017-12-26T20:48:02.629Z,13.27
2017-12-26T20:50:32.453Z,11.50
2017-12-26T20:53:02.377Z,10.53
2017-12-26T20:55:32.202Z,19.13
2017-12-26T20:58:01.995Z,13.13
2017-12-26T21:00:31.540Z,16.43
2017-12-26T21:03:01.156Z,20.03
2017-12-26T21:05:30.659Z,17.17
2017-12-26T21:08:00.354Z,23.03
2017-12-26T21:10:29.852Z,19.33
2017-12-26T21:12:59.777Z,17.90
2017-12-26T21:15:29.553Z,18.20
2017-12-26T21:17:59.036Z,22.63
2017-12-26T21:20:28.823Z,9.73
2017-12-26T21:22:59.138Z,21.67
2017-12-26T21:25:28.867Z,21.63
2017-12-26T21:27:58.400Z,15.33
2017-12-26T21:30:28.399Z,26.00
2017-12-26T21:32:58.425Z,11.07
2017-12-26T21:35:28.199Z,19.37
2017-12-26T21:37:58.118Z,13.93
2017-12-26T21:40:27.689Z,27.63
2017-12-26T21:42:57.471Z,16.90
2017-12-26T21:45:27.176Z,19.70
2017-12-26T21:47:57.105Z,22.70
2017-12-26T21:50:26.937Z,29.40
2017-12-26T21:52:56.751Z,22.40
2017-12-26T21:55:26.421Z,31.63
2017-12-26T21:57:56.221Z,21.33
2017-12-26T22:00:25.847Z,21.37
2017-12-26T22:02:55.633Z,28.97
2017-12-26T22:05:25.978Z,31.23
2017-12-26T22:07:55.973Z,28.53
2017-12-26T22:10:25.726Z,22.83
2017-12-26T22:12:55.253Z,24.13
2017-12-26T22:15:26.275Z,22.50
2017-12-26T22:17:56.186Z,25.10
2017-12-26T22:20:25.852Z,28.17
2017-12-26T22:22:55.494Z,32.10
2017-12-26T22:25:25.055Z,24.63
2017-12-26T22:27:55.127Z,21.73
2017-12-26T22:30:24.979Z,26.40
2017-12-26T22:32:55.709Z,36.73
2017-12-26T22:35:25.186Z,29.43
2017-12-26T22:37:54.917Z,30.33
2017-12-26T22:40:24.436Z,26.03
2017-12-26T22:42:54.735Z,32.57
2017-12-26T22:45:24.495Z,36.07
2017-12-26T22:47:54.218Z,39.33
2017-12-26T22:50:23.718Z,30.03
2017-12-26T22:52:53.193Z,28.27
2017-12-26T22:55:22.990Z,36.90
2017-12-26T22:57:53.001Z,28.13
2017-12-26T23:00:23.354Z,27.47
2017-12-26T23:02:54.070Z,25.47
2017-12-26T23:05:24.470Z,28.87
2017-12-26T23:07:54.051Z,41.40
2017-12-26T23:10:23.642Z,37.77
2017-12-26T23:12:53.351Z,24.37
2017-12-26T23:15:27.276Z,26.83
2017-12-26T23:18:31.465Z,34.20
2017-12-26T23:21:01.837Z,31.50
2017-12-26T23:23:35.695Z,24.20
2017-12-26T23:28:14.127Z,33.03
2017-12-26T23:32:51.698Z,32.20
2017-12-26T23:37:28.331Z,38.00
2017-12-26T23:42:05.985Z,29.20
2017-12-26T23:46:42.652Z,34.93
2017-12-26T23:51:19.248Z,29.30
2017-12-26T23:54:51.326Z,30.07
2017-12-26T23:58:24.529Z,31.67
